Time;durP1;ratioP1;P1;durP2;ratioP2;P2;SDS_P1;SDS_P2;PMS_P1;PMS_P2;Temp;Humidity;BMP_temperature;BMP_pressure;BME280_temperature;BME280_humidity;BME280_pressure;Samples;Min_cycle;Max_cycle;Signal;HPM_P1;HPM_P2
2023/11/28 00:01:17;;;;;;;108.78;9.45;;;;;;;-148.24;100.00;61531.34;5005282;28;20042;-53
2023/11/28 00:03:43;;;;;;;129.02;9.93;;;;;;;-148.24;100.00;61531.34;5008723;28;20025;-52
2023/11/28 00:06:17;;;;;;;115.05;9.30;;;;;;;-148.24;100.00;61531.34;5003755;28;20048;-53
2023/11/28 00:08:43;;;;;;;80.88;7.97;;;;;;;-148.24;100.00;61531.34;5009812;28;20021;-53
2023/11/28 00:11:08;;;;;;;115.82;9.65;;;;;;;-148.24;100.00;61531.34;5007050;28;20038;-53
2023/11/28 00:13:34;;;;;;;66.10;6.82;;;;;;;-148.24;100.00;61531.34;5009507;28;20021;-53
2023/11/28 00:15:59;;;;;;;88.55;8.13;;;;;;;-148.24;100.00;61531.34;5006395;28;20045;-53
2023/11/28 00:18:25;;;;;;;65.75;7.00;;;;;;;-148.24;100.00;61531.34;5005904;28;20044;-53
2023/11/28 00:20:50;;;;;;;65.15;6.97;;;;;;;-148.24;100.00;61531.34;5006176;28;20053;-52
2023/11/28 00:23:15;;;;;;;104.53;8.15;;;;;;;-148.24;100.00;61531.34;5008812;28;20501;-53
2023/11/28 00:25:41;;;;;;;87.75;7.97;;;;;;;-148.24;100.00;61531.34;5007450;28;20037;-53
2023/11/28 00:28:06;;;;;;;97.88;9.35;;;;;;;-148.24;100.00;61531.34;5007515;28;20026;-53
2023/11/28 00:30:32;;;;;;;95.22;6.90;;;;;;;-148.24;100.00;61531.34;5007157;28;20045;-53
2023/11/28 00:32:57;;;;;;;77.13;9.20;;;;;;;-148.24;100.00;61531.34;5007920;28;20049;-53
2023/11/28 00:35:22;;;;;;;81.57;8.38;;;;;;;-148.24;100.00;61531.34;5007325;28;20057;-53
2023/11/28 00:37:48;;;;;;;122.20;9.75;;;;;;;-148.24;100.00;61531.34;5007971;28;20033;-53
2023/11/28 00:40:13;;;;;;;82.13;8.38;;;;;;;-148.24;100.00;61531.34;5009125;28;20030;-53
2023/11/28 00:42:39;;;;;;;80.43;9.30;;;;;;;-148.24;100.00;61531.34;5007379;28;20032;-53
2023/11/28 00:45:07;;;;;;;143.43;11.02;;;;;;;-148.24;100.00;61531.34;5006231;28;20114;-54
2023/11/28 00:47:33;;;;;;;65.15;7.32;;;;;;;-148.24;100.00;61531.34;5008895;28;20079;-53
2023/11/28 00:49:59;;;;;;;86.72;8.00;;;;;;;-148.24;100.00;61531.34;5005924;28;20038;-53
2023/11/28 00:52:24;;;;;;;106.03;9.18;;;;;;;-148.24;100.00;61531.34;5005577;28;20033;-53
2023/11/28 00:54:49;;;;;;;85.95;8.38;;;;;;;-148.24;100.00;61531.34;5006508;28;20030;-53
2023/11/28 00:57:15;;;;;;;110.35;9.88;;;;;;;-148.24;100.00;61531.34;5002890;28;20117;-53
2023/11/28 00:59:43;;;;;;;82.38;7.95;;;;;;;-148.24;100.00;61531.34;5007035;28;20241;-53
2023/11/28 01:02:09;;;;;;;95.53;9.13;;;;;;;-148.24;100.00;61531.34;5004059;28;20258;-53
2023/11/28 01:04:35;;;;;;;97.13;8.50;;;;;;;-148.24;100.00;61531.34;5007769;28;20105;-53
2023/11/28 01:07:01;;;;;;;73.15;6.45;;;;;;;-148.24;100.00;61531.34;5004985;28;20514;-53
2023/11/28 01:09:27;;;;;;;69.45;7.57;;;;;;;-148.24;100.00;61531.34;5005489;28;20113;-53
2023/11/28 01:11:52;;;;;;;92.53;8.77;;;;;;;-148.24;100.00;61531.34;5009846;28;20479;-53
2023/11/28 01:14:18;;;;;;;115.78;9.85;;;;;;;-148.24;100.00;61531.34;5005521;28;20033;-53
2023/11/28 01:16:46;;;;;;;76.35;7.90;;;;;;;-148.24;100.00;61531.34;5006561;28;20556;-53
2023/11/28 01:19:12;;;;;;;159.43;11.90;;;;;;;-148.24;100.00;61531.34;5004006;28;20028;-52
2023/11/28 01:21:37;;;;;;;68.40;8.07;;;;;;;-148.24;100.00;61531.34;5003572;28;20259;-52
2023/11/28 01:24:03;;;;;;;66.60;7.30;;;;;;;-148.24;100.00;61531.34;5005582;28;20417;-53
2023/11/28 01:26:28;;;;;;;92.80;8.13;;;;;;;-148.24;100.00;61531.34;5006771;28;20041;-52
2023/11/28 01:28:54;;;;;;;81.50;8.32;;;;;;;-148.24;100.00;61531.34;5008340;28;20044;-52
2023/11/28 01:31:19;;;;;;;117.78;10.48;;;;;;;-148.24;100.00;61531.34;5003884;28;20690;-53
2023/11/28 01:33:45;;;;;;;100.55;9.05;;;;;;;-148.24;100.00;61531.34;5007409;28;20063;-52
2023/11/28 01:36:10;;;;;;;109.25;10.07;;;;;;;-148.24;100.00;61531.34;5004365;28;20041;-53
2023/11/28 01:38:37;;;;;;;88.20;8.48;;;;;;;-148.24;100.00;61531.34;5006746;28;20303;-53
2023/11/28 01:41:03;;;;;;;86.82;7.80;;;;;;;-148.24;100.00;61531.34;5012851;28;20553;-53
2023/11/28 01:43:30;;;;;;;75.63;7.55;;;;;;;-148.24;100.00;61531.34;5006943;28;20033;-52
2023/11/28 01:45:57;;;;;;;120.63;9.82;;;;;;;-148.24;100.00;61531.34;5005329;28;20030;-53
2023/11/28 01:48:23;;;;;;;111.53;9.90;;;;;;;-148.24;100.00;61531.34;5004863;28;20500;-53
2023/11/28 01:50:49;;;;;;;77.95;7.90;;;;;;;-148.24;100.00;61531.34;5005410;28;20041;-53
2023/11/28 01:53:18;;;;;;;170.38;12.75;;;;;;;-148.24;100.00;61531.34;5002666;28;20021;-53
2023/11/28 01:55:44;;;;;;;65.70;7.78;;;;;;;-148.24;100.00;61531.34;5006882;28;20033;-53
2023/11/28 01:58:11;;;;;;;91.57;8.77;;;;;;;-148.24;100.00;61531.34;5003556;28;20084;-54
2023/11/28 02:00:36;;;;;;;85.22;8.25;;;;;;;-148.24;100.00;61531.34;5006112;28;20477;-53
2023/11/28 02:03:03;;;;;;;65.65;6.57;;;;;;;-148.24;100.00;61531.34;5003487;28;20569;-53
2023/11/28 02:05:28;;;;;;;85.00;8.77;;;;;;;-148.24;100.00;61531.34;5002053;28;20045;-53
2023/11/28 02:07:55;;;;;;;100.75;9.85;;;;;;;-148.24;100.00;61531.34;5004411;28;20037;-53
2023/11/28 02:10:21;;;;;;;94.05;8.80;;;;;;;-148.24;100.00;61531.34;5003262;28;20060;-53
2023/11/28 02:12:47;;;;;;;100.80;9.13;;;;;;;-148.24;100.00;61531.34;5006188;28;20020;-53
2023/11/28 02:15:12;;;;;;;117.15;10.20;;;;;;;-148.24;100.00;61531.34;5002800;28;20022;-53
2023/11/28 02:17:37;;;;;;;64.63;7.53;;;;;;;-148.24;100.00;61531.34;5005989;28;20018;-53
2023/11/28 02:20:04;;;;;;;121.90;9.20;;;;;;;-148.24;100.00;61531.34;5006860;28;20044;-52
2023/11/28 02:22:30;;;;;;;85.13;8.02;;;;;;;-148.24;100.00;61531.34;5005917;28;20068;-53
2023/11/28 02:24:58;;;;;;;76.38;8.20;;;;;;;-148.24;100.00;61531.34;5005189;28;20085;-53
2023/11/28 02:27:23;;;;;;;161.95;12.63;;;;;;;-148.24;100.00;61531.34;5003478;28;20109;-53
2023/11/28 02:29:48;;;;;;;71.05;7.55;;;;;;;-148.24;100.00;61531.34;5005811;28;20140;-53
2023/11/28 02:32:14;;;;;;;122.45;10.70;;;;;;;-148.24;100.00;61531.34;5004051;28;20033;-53
2023/11/28 02:34:39;;;;;;;95.07;8.75;;;;;;;-148.24;100.00;61531.34;5003955;28;20029;-52
2023/11/28 02:37:05;;;;;;;73.60;7.50;;;;;;;-148.24;100.00;61531.34;5004743;28;20049;-53
2023/11/28 02:39:31;;;;;;;96.30;8.57;;;;;;;-148.24;100.00;61531.34;5005085;28;20030;-53
2023/11/28 02:41:56;;;;;;;87.10;8.75;;;;;;;-148.24;100.00;61531.34;5004152;28;20615;-53
2023/11/28 02:44:21;;;;;;;96.38;9.07;;;;;;;-148.24;100.00;61531.34;5003759;28;20029;-53
2023/11/28 02:46:47;;;;;;;110.15;9.40;;;;;;;-148.24;100.00;61531.34;5005013;28;20124;-53
2023/11/28 02:49:12;;;;;;;109.00;9.68;;;;;;;-148.24;100.00;61531.34;5003200;28;20731;-52
2023/11/28 02:51:38;;;;;;;74.93;8.27;;;;;;;-148.24;100.00;61531.34;5004701;28;20033;-53
2023/11/28 02:54:03;;;;;;;100.10;8.68;;;;;;;-148.24;100.00;61531.34;5005410;28;20014;-52
2023/11/28 02:56:29;;;;;;;130.52;10.85;;;;;;;-148.24;100.00;61531.34;5003240;28;20081;-54
2023/11/28 02:58:56;;;;;;;73.18;7.38;;;;;;;-148.24;100.00;61531.34;5005926;28;20038;-52
2023/11/28 03:01:22;;;;;;;153.82;11.40;;;;;;;-148.24;100.00;61531.34;5002139;28;20038;-53
2023/11/28 03:03:47;;;;;;;88.80;8.27;;;;;;;-148.24;100.00;61531.34;5003493;28;20035;-53
2023/11/28 03:06:13;;;;;;;98.07;9.00;;;;;;;-148.24;100.00;61531.34;5003405;28;20332;-53
2023/11/28 03:08:38;;;;;;;116.95;9.32;;;;;;;-148.24;100.00;61531.34;5001872;28;20037;-53
2023/11/28 03:11:04;;;;;;;104.60;8.95;;;;;;;-148.24;100.00;61531.34;5004556;28;20038;-53
2023/11/28 03:13:29;;;;;;;127.03;10.07;;;;;;;-148.24;100.00;61531.34;5004126;28;20586;-53
2023/11/28 03:15:55;;;;;;;132.38;10.63;;;;;;;-148.24;100.00;61531.34;5003012;28;20576;-53
2023/11/28 03:18:20;;;;;;;99.55;9.02;;;;;;;-148.24;100.00;61531.34;5003275;28;20091;-53
2023/11/28 03:20:46;;;;;;;108.80;9.48;;;;;;;-148.24;100.00;61531.34;5002990;28;20038;-53
2023/11/28 03:23:11;;;;;;;114.43;9.30;;;;;;;-148.24;100.00;61531.34;5002960;28;20107;-53
2023/11/28 03:25:36;;;;;;;66.00;6.82;;;;;;;-148.24;100.00;61531.34;5001461;28;20555;-53
2023/11/28 03:28:03;;;;;;;96.22;8.23;;;;;;;-148.24;100.00;61531.34;5002688;28;20133;-53
2023/11/28 03:30:28;;;;;;;127.45;10.30;;;;;;;-148.24;100.00;61531.34;5001390;28;20056;-53
2023/11/28 03:32:54;;;;;;;93.15;8.18;;;;;;;-148.24;100.00;61531.34;5003095;28;20027;-53
2023/11/28 03:35:19;;;;;;;136.93;9.75;;;;;;;-148.24;100.00;61531.34;5000779;28;20087;-53
2023/11/28 03:37:46;;;;;;;123.32;10.05;;;;;;;-148.24;100.00;61531.34;5003609;28;20024;-53
2023/11/28 03:40:12;;;;;;;87.07;8.50;;;;;;;-148.24;100.00;61531.34;5005044;28;20113;-53
2023/11/28 03:42:38;;;;;;;148.48;11.07;;;;;;;-148.24;100.00;61531.34;5004384;28;20029;-53
2023/11/28 03:45:04;;;;;;;106.07;9.10;;;;;;;-148.24;100.00;61531.34;5007409;28;20026;-53
2023/11/28 03:47:30;;;;;;;104.63;8.38;;;;;;;-148.24;100.00;61531.34;5005234;28;20056;-52
2023/11/28 03:49:56;;;;;;;133.32;10.30;;;;;;;-148.24;100.00;61531.34;5006744;28;20701;-52
2023/11/28 03:52:22;;;;;;;118.43;8.65;;;;;;;-148.24;100.00;61531.34;5005969;28;20059;-53
2023/11/28 03:54:47;;;;;;;112.90;8.70;;;;;;;-148.24;100.00;61531.34;5006963;28;20528;-53
2023/11/28 03:57:13;;;;;;;145.43;9.98;;;;;;;-148.24;100.00;61531.34;5006592;28;20136;-53
2023/11/28 03:59:38;;;;;;;89.55;7.82;;;;;;;-148.24;100.00;61531.34;5004842;28;20025;-53
2023/11/28 04:02:04;;;;;;;114.85;8.20;;;;;;;-148.24;100.00;61531.34;5007292;28;20071;-53
2023/11/28 04:04:29;;;;;;;135.10;11.25;;;;;;;-148.24;100.00;61531.34;5005253;28;20325;-53
2023/11/28 04:06:55;;;;;;;110.00;8.93;;;;;;;-148.24;100.00;61531.34;5005986;28;20090;-52
2023/11/28 04:09:20;;;;;;;152.93;10.75;;;;;;;-148.24;100.00;61531.34;5007051;28;20460;-53
2023/11/28 04:11:46;;;;;;;108.63;9.23;;;;;;;-148.24;100.00;61531.34;5005753;28;20063;-52
2023/11/28 04:14:11;;;;;;;110.00;8.80;;;;;;;-148.24;100.00;61531.34;5006171;28;20119;-53
2023/11/28 04:16:37;;;;;;;93.55;7.93;;;;;;;-148.24;100.00;61531.34;5005329;28;20034;-53
2023/11/28 04:19:02;;;;;;;97.25;8.05;;;;;;;-148.24;100.00;61531.34;5007835;28;20053;-52
2023/11/28 04:21:28;;;;;;;105.95;8.32;;;;;;;-148.24;100.00;61531.34;5003990;28;20042;-53
2023/11/28 04:23:53;;;;;;;91.68;7.80;;;;;;;-148.24;100.00;61531.34;5005425;28;20030;-53
2023/11/28 04:26:18;;;;;;;116.35;8.65;;;;;;;-148.24;100.00;61531.34;5005751;28;20041;-53
2023/11/28 04:28:44;;;;;;;93.65;8.20;;;;;;;-148.24;100.00;61531.34;5006413;28;20148;-53
2023/11/28 04:31:20;;;;;;;110.47;8.05;;;;;;;-148.24;100.00;61531.34;5004953;28;20038;-53
2023/11/28 04:33:46;;;;;;;93.75;7.85;;;;;;;-148.24;100.00;61531.34;5004503;28;20029;-53
2023/11/28 04:36:15;;;;;;;75.78;7.00;;;;;;;-148.24;100.00;61531.34;5006419;28;20309;-53
2023/11/28 04:38:44;;;;;;;106.82;8.73;;;;;;;-148.24;100.00;61531.34;5007092;28;20021;-54
2023/11/28 04:41:13;;;;;;;86.60;7.65;;;;;;;-148.24;100.00;61531.34;5006492;28;20037;-53
2023/11/28 04:43:38;;;;;;;123.13;9.73;;;;;;;-148.24;100.00;61531.34;5004470;28;20061;-53
2023/11/28 04:46:04;;;;;;;81.13;6.45;;;;;;;-148.24;100.00;61531.34;5003256;28;20061;-53
2023/11/28 04:48:30;;;;;;;121.45;9.35;;;;;;;-148.24;100.00;61531.34;5003487;28;20026;-53
2023/11/28 04:50:56;;;;;;;133.20;9.57;;;;;;;-148.24;100.00;61531.34;5003740;28;20041;-53
2023/11/28 04:53:21;;;;;;;131.05;9.48;;;;;;;-148.24;100.00;61531.34;5005455;28;20076;-53
2023/11/28 04:55:47;;;;;;;66.20;6.05;;;;;;;-148.24;100.00;61531.34;5005740;28;20045;-53
2023/11/28 04:58:12;;;;;;;131.90;9.38;;;;;;;-148.24;100.00;61531.34;5004527;28;20449;-53
2023/11/28 05:00:37;;;;;;;91.13;7.38;;;;;;;-148.24;100.00;61531.34;5005549;28;20048;-53
2023/11/28 05:03:03;;;;;;;89.85;7.50;;;;;;;-148.24;100.00;61531.34;5004830;28;20080;-53
2023/11/28 05:05:28;;;;;;;144.25;10.23;;;;;;;-148.24;100.00;61531.34;5005351;28;20044;-53
2023/11/28 05:07:53;;;;;;;95.45;7.93;;;;;;;-148.24;100.00;61531.34;5005917;28;20030;-53
2023/11/28 05:10:19;;;;;;;113.30;9.02;;;;;;;-148.24;100.00;61531.34;5003222;28;20469;-53
2023/11/28 05:12:44;;;;;;;128.57;10.10;;;;;;;-148.24;100.00;61531.34;5004711;28;20021;-53
2023/11/28 05:15:10;;;;;;;99.72;8.40;;;;;;;-148.24;100.00;61531.34;5003953;28;20030;-52
2023/11/28 05:17:35;;;;;;;95.97;8.38;;;;;;;-148.24;100.00;61531.34;5006937;28;20524;-54
2023/11/28 05:20:01;;;;;;;115.22;8.77;;;;;;;-148.24;100.00;61531.34;5004842;28;20017;-53
2023/11/28 05:22:26;;;;;;;96.95;7.25;;;;;;;-148.24;100.00;61531.34;5003507;28;20050;-54
2023/11/28 05:24:51;;;;;;;99.55;7.25;;;;;;;-148.24;100.00;61531.34;5005080;28;20022;-54
2023/11/28 05:27:17;;;;;;;92.20;7.53;;;;;;;-148.24;100.00;61531.34;5005552;28;20437;-54
2023/11/28 05:29:42;;;;;;;103.03;8.52;;;;;;;-148.24;100.00;61531.34;5003415;28;20123;-53
2023/11/28 05:32:07;;;;;;;100.35;7.32;;;;;;;-148.24;100.00;61531.34;5004279;28;20121;-53
2023/11/28 05:34:33;;;;;;;91.28;6.93;;;;;;;-148.24;100.00;61531.34;5004583;28;20192;-53
2023/11/28 05:36:59;;;;;;;82.13;7.00;;;;;;;-148.24;100.00;61531.34;5005068;28;20041;-54
2023/11/28 05:39:24;;;;;;;132.65;9.55;;;;;;;-148.24;100.00;61531.34;5006732;28;20080;-54
2023/11/28 05:41:50;;;;;;;89.57;6.97;;;;;;;-148.24;100.00;61531.34;5005639;28;20038;-53
2023/11/28 05:44:15;;;;;;;84.15;7.50;;;;;;;-148.24;100.00;61531.34;5004944;28;20901;-53
2023/11/28 05:46:40;;;;;;;125.55;9.05;;;;;;;-148.24;100.00;61531.34;5002217;28;20087;-53
2023/11/28 05:49:06;;;;;;;89.07;7.43;;;;;;;-148.24;100.00;61531.34;5006990;28;20722;-53
2023/11/28 05:51:31;;;;;;;140.70;10.05;;;;;;;-148.24;100.00;61531.34;5003966;28;20076;-53
2023/11/28 05:53:58;;;;;;;103.68;7.97;;;;;;;-148.24;100.00;61531.34;5003744;28;20287;-53
2023/11/28 05:56:24;;;;;;;98.22;8.48;;;;;;;-148.24;100.00;61531.34;5003321;28;20044;-54
2023/11/28 05:58:49;;;;;;;74.90;6.40;;;;;;;-148.24;100.00;61531.34;5006149;28;20017;-53
2023/11/28 06:01:15;;;;;;;112.03;8.57;;;;;;;-148.24;100.00;61531.34;5002863;28;20046;-53
2023/11/28 06:03:40;;;;;;;74.25;6.55;;;;;;;-148.24;100.00;61531.34;5005091;28;20416;-53
2023/11/28 06:06:06;;;;;;;87.43;7.05;;;;;;;-148.24;100.00;61531.34;5004327;28;20371;-52
2023/11/28 06:08:32;;;;;;;142.75;10.45;;;;;;;-148.24;100.00;61531.34;5005888;28;20390;-53
2023/11/28 06:10:57;;;;;;;87.47;7.55;;;;;;;-148.24;100.00;61531.34;5004826;28;20037;-52
2023/11/28 06:13:23;;;;;;;118.35;9.77;;;;;;;-148.24;100.00;61531.34;5003631;28;20040;-53
2023/11/28 06:15:48;;;;;;;103.07;8.55;;;;;;;-148.24;100.00;61531.34;5004885;28;20314;-53
2023/11/28 06:18:14;;;;;;;80.15;7.43;;;;;;;-148.24;100.00;61531.34;5006987;28;20105;-55
2023/11/28 06:20:39;;;;;;;75.28;6.85;;;;;;;-148.24;100.00;61531.34;5003135;28;20046;-53
2023/11/28 06:23:04;;;;;;;109.22;8.50;;;;;;;-148.24;100.00;61531.34;5003752;28;20129;-53
2023/11/28 06:25:30;;;;;;;137.70;10.48;;;;;;;-148.24;100.00;61531.34;5004394;28;20049;-53
2023/11/28 06:27:56;;;;;;;80.40;6.93;;;;;;;-148.24;100.00;61531.34;5004415;28;20396;-53
2023/11/28 06:30:21;;;;;;;69.80;6.65;;;;;;;-148.24;100.00;61531.34;5002499;28;20385;-53
2023/11/28 06:32:47;;;;;;;94.90;8.35;;;;;;;-148.24;100.00;61531.34;5004791;28;20026;-53
2023/11/28 06:35:12;;;;;;;120.43;9.75;;;;;;;-148.24;100.00;61531.34;5005288;28;20343;-53
2023/11/28 06:37:38;;;;;;;144.77;11.02;;;;;;;-148.24;100.00;61531.34;5003576;28;20079;-53
2023/11/28 06:40:04;;;;;;;74.97;6.95;;;;;;;-148.24;100.00;61531.34;5003953;28;20029;-54
2023/11/28 06:42:29;;;;;;;174.27;12.20;;;;;;;-148.24;100.00;61531.34;5003032;28;20071;-53
2023/11/28 06:44:54;;;;;;;81.55;7.95;;;;;;;-148.24;100.00;61531.34;5003680;28;20093;-53
2023/11/28 06:47:20;;;;;;;80.07;7.22;;;;;;;-148.24;100.00;61531.34;5007546;28;20046;-53
2023/11/28 06:49:47;;;;;;;100.88;8.65;;;;;;;-148.24;100.00;61531.34;5003236;28;20049;-53
2023/11/28 06:52:13;;;;;;;80.20;6.13;;;;;;;-148.24;100.00;61531.34;5004387;28;20092;-53
2023/11/28 06:54:40;;;;;;;140.65;10.23;;;;;;;-148.24;100.00;61531.34;5002333;28;20117;-53
2023/11/28 06:57:06;;;;;;;84.07;7.57;;;;;;;-148.24;100.00;61531.34;5004804;28;20095;-53
2023/11/28 06:59:31;;;;;;;125.78;10.07;;;;;;;-148.24;100.00;61531.34;5003486;28;20579;-53
2023/11/28 07:01:56;;;;;;;88.75;7.82;;;;;;;-148.24;100.00;61531.34;5004066;28;20054;-53
2023/11/28 07:04:22;;;;;;;91.53;7.55;;;;;;;-148.24;100.00;61531.34;5004656;28;20062;-53
2023/11/28 07:06:47;;;;;;;70.13;7.10;;;;;;;-148.24;100.00;61531.34;5002646;28;20045;-53
2023/11/28 07:09:13;;;;;;;103.93;9.60;;;;;;;-148.24;100.00;61531.34;5002086;28;20025;-53
2023/11/28 07:11:40;;;;;;;93.78;8.55;;;;;;;-148.24;100.00;61531.34;5003610;28;20038;-53
2023/11/28 07:14:06;;;;;;;81.32;8.23;;;;;;;-148.24;100.00;61531.34;5009746;28;20476;-54
2023/11/28 07:16:32;;;;;;;141.63;11.50;;;;;;;-148.24;100.00;61531.34;5008546;28;20754;-53
2023/11/28 07:18:58;;;;;;;77.97;7.72;;;;;;;-148.24;100.00;61531.34;5008838;28;20439;-54
2023/11/28 07:21:24;;;;;;;84.70;7.82;;;;;;;-148.24;100.00;61531.34;5006271;28;20064;-53
2023/11/28 07:23:49;;;;;;;121.28;9.90;;;;;;;-148.24;100.00;61531.34;5010304;28;20103;-53
2023/11/28 07:26:16;;;;;;;92.50;8.77;;;;;;;-148.24;100.00;61531.34;5008438;28;20556;-53
2023/11/28 07:28:41;;;;;;;135.18;11.38;;;;;;;-148.24;100.00;61531.34;5006104;28;20064;-53
2023/11/28 07:31:07;;;;;;;119.88;9.77;;;;;;;-148.24;100.00;61531.34;5008424;28;20602;-53
2023/11/28 07:33:33;;;;;;;135.55;12.20;;;;;;;-148.24;100.00;61531.34;5006703;28;20061;-53
2023/11/28 07:35:58;;;;;;;78.60;7.80;;;;;;;-148.24;100.00;61531.34;5007661;28;20046;-53
2023/11/28 07:38:24;;;;;;;106.13;9.32;;;;;;;-148.24;100.00;61531.34;5007081;28;20032;-53
2023/11/28 07:40:51;;;;;;;85.55;8.23;;;;;;;-148.24;100.00;61531.34;5005977;28;20108;-53
2023/11/28 07:43:16;;;;;;;83.47;8.25;;;;;;;-148.24;100.00;61531.34;5007134;28;20056;-54
2023/11/28 07:45:42;;;;;;;136.65;10.98;;;;;;;-148.24;100.00;61531.34;5005237;28;20348;-53
2023/11/28 07:48:07;;;;;;;87.72;8.38;;;;;;;-148.24;100.00;61531.34;5007843;28;20022;-53
2023/11/28 07:50:33;;;;;;;124.70;10.13;;;;;;;-148.24;100.00;61531.34;5007137;28;20034;-53
2023/11/28 07:52:59;;;;;;;84.05;7.53;;;;;;;-148.24;100.00;61531.34;5007855;28;20592;-54
2023/11/28 07:55:24;;;;;;;85.15;7.95;;;;;;;-148.24;100.00;61531.34;5006937;28;20045;-52
2023/11/28 07:57:50;;;;;;;106.90;8.55;;;;;;;-148.24;100.00;61531.34;5008013;28;20025;-53
2023/11/28 08:00:15;;;;;;;73.28;7.65;;;;;;;-148.24;100.00;61531.34;5006731;28;21200;-53
2023/11/28 08:02:41;;;;;;;103.82;9.10;;;;;;;-148.24;100.00;61531.34;5006040;28;20283;-53
2023/11/28 08:05:07;;;;;;;90.28;8.30;;;;;;;-148.24;100.00;61531.34;5011447;28;20105;-53
2023/11/28 08:07:33;;;;;;;79.82;7.55;;;;;;;-148.24;100.00;61531.34;5012789;28;20116;-53
2023/11/28 08:10:00;;;;;;;53.80;6.47;;;;;;;-148.24;100.00;61531.34;5011706;28;20034;-53
2023/11/28 08:12:26;;;;;;;81.03;6.85;;;;;;;-148.24;100.00;61531.34;5009261;28;20045;-53
2023/11/28 08:14:52;;;;;;;60.45;6.47;;;;;;;-148.24;100.00;61531.34;5012791;28;20060;-53
2023/11/28 08:17:17;;;;;;;56.25;5.97;;;;;;;-148.24;100.00;61531.34;5009898;28;20073;-53
2023/11/28 08:19:43;;;;;;;133.00;11.32;;;;;;;-148.24;100.00;61531.34;5010191;28;20552;-53
2023/11/28 08:22:08;;;;;;;66.25;8.85;;;;;;;-148.24;100.00;61531.34;5011539;28;20045;-53
2023/11/28 08:24:34;;;;;;;117.60;10.38;;;;;;;-148.24;100.00;61531.34;5009343;28;20521;-53
2023/11/28 08:26:59;;;;;;;88.47;8.48;;;;;;;-148.24;100.00;61531.34;5009988;28;20103;-53
2023/11/28 08:29:24;;;;;;;66.82;7.63;;;;;;;-148.24;100.00;61531.34;5011467;28;20030;-53
2023/11/28 08:31:51;;;;;;;61.08;6.63;;;;;;;-148.24;100.00;61531.34;5010878;28;20061;-52
2023/11/28 08:34:17;;;;;;;74.38;7.88;;;;;;;-148.24;100.00;61531.34;5011387;28;20021;-53
2023/11/28 08:36:43;;;;;;;105.25;10.15;;;;;;;-148.24;100.00;61531.34;5009396;28;20045;-53
2023/11/28 08:39:09;;;;;;;100.43;12.30;;;;;;;-148.24;100.00;61531.34;5010157;28;20037;-53
2023/11/28 08:41:34;;;;;;;97.13;8.95;;;;;;;-148.24;100.00;61531.34;5008634;28;20045;-53
2023/11/28 08:43:59;;;;;;;49.30;6.20;;;;;;;-148.24;100.00;61531.34;5009328;28;20302;-53
2023/11/28 08:46:25;;;;;;;71.25;6.25;;;;;;;-148.24;100.00;61531.34;5010605;28;20053;-56
2023/11/28 08:48:50;;;;;;;52.08;5.72;;;;;;;-148.24;100.00;61531.34;5010042;28;20028;-53
2023/11/28 08:51:16;;;;;;;41.70;4.85;;;;;;;-148.24;100.00;61531.34;5009065;28;20640;-54
2023/11/28 08:53:41;;;;;;;109.82;8.30;;;;;;;-148.24;100.00;61531.34;5009543;28;20610;-52
2023/11/28 08:56:15;;;;;;;57.53;5.38;;;;;;;-148.24;100.00;61531.34;5010623;28;20033;-54
2023/11/28 08:58:41;;;;;;;94.47;7.32;;;;;;;-148.24;100.00;61531.34;5010791;28;20072;-53
2023/11/28 09:01:06;;;;;;;51.63;5.13;;;;;;;-148.24;100.00;61531.34;5009299;28;20174;-54
2023/11/28 09:03:32;;;;;;;79.85;6.90;;;;;;;-148.24;100.00;61531.34;5008223;28;20192;-56
2023/11/28 09:05:57;;;;;;;73.35;6.47;;;;;;;-148.24;100.00;61531.34;5010005;28;20061;-54
2023/11/28 09:08:23;;;;;;;52.50;3.90;;;;;;;-148.24;100.00;61531.34;5012422;28;20026;-54
2023/11/28 09:10:48;;;;;;;50.53;5.13;;;;;;;-148.24;100.00;61531.34;5009836;28;20132;-54
2023/11/28 09:13:14;;;;;;;65.72;6.78;;;;;;;-148.24;100.00;61531.34;5010215;28;20452;-54
2023/11/28 09:15:40;;;;;;;98.93;7.30;;;;;;;-148.24;100.00;61531.34;5010296;28;20041;-54
2023/11/28 09:18:05;;;;;;;44.65;3.72;;;;;;;-148.24;100.00;61531.34;5012432;28;20032;-54
2023/11/28 09:20:31;;;;;;;75.10;6.43;;;;;;;-148.24;100.00;61531.34;5008669;28;20099;-54
2023/11/28 09:22:56;;;;;;;55.83;6.63;;;;;;;-148.24;100.00;61531.34;5010758;28;20021;-55
2023/11/28 09:25:21;;;;;;;61.28;5.03;;;;;;;-148.24;100.00;61531.34;5009320;28;20507;-54
2023/11/28 09:27:47;;;;;;;137.85;9.23;;;;;;;-148.24;100.00;61531.34;5009858;28;20033;-54
2023/11/28 09:30:13;;;;;;;52.50;6.65;;;;;;;-148.24;100.00;61531.34;5008366;28;20096;-54
2023/11/28 09:32:38;;;;;;;83.57;6.53;;;;;;;-148.24;100.00;61531.34;5009264;28;20018;-54
2023/11/28 09:35:05;;;;;;;91.57;6.35;;;;;;;-148.24;100.00;61531.34;5007232;28;20029;-55
2023/11/28 09:37:30;;;;;;;61.05;6.55;;;;;;;-148.24;100.00;61531.34;5008967;28;20553;-54
2023/11/28 09:39:56;;;;;;;53.70;6.38;;;;;;;-148.24;100.00;61531.34;5011416;28;20050;-54
2023/11/28 09:42:25;;;;;;;72.40;7.43;;;;;;;-148.24;100.00;61531.34;5008224;28;20491;-53
2023/11/28 09:44:51;;;;;;;81.68;6.88;;;;;;;-148.24;100.00;61531.34;5008107;28;20026;-53
2023/11/28 09:47:20;;;;;;;80.13;6.55;;;;;;;-148.24;100.00;61531.34;5005880;28;20505;-55
2023/11/28 09:49:49;;;;;;;92.20;8.15;;;;;;;-148.24;100.00;61531.34;5007527;28;20490;-54
2023/11/28 09:52:14;;;;;;;61.80;6.93;;;;;;;-148.24;100.00;61531.34;5006438;28;20155;-54
2023/11/28 09:54:40;;;;;;;112.72;8.32;;;;;;;-148.24;100.00;61531.34;5008223;28;20056;-54
2023/11/28 09:57:09;;;;;;;49.88;4.72;;;;;;;-148.24;100.00;61531.34;5007052;28;20033;-54
2023/11/28 09:59:38;;;;;;;66.07;4.68;;;;;;;-148.24;100.00;61531.34;5010204;28;20032;-54
2023/11/28 10:02:07;;;;;;;78.82;7.47;;;;;;;-148.24;100.00;61531.34;5008218;28;20040;-54
2023/11/28 10:04:34;;;;;;;89.78;9.43;;;;;;;-148.24;100.00;61531.34;5006860;28;20038;-53
2023/11/28 10:07:04;;;;;;;111.97;12.15;;;;;;;-148.24;100.00;61531.34;5007097;28;20049;-54
2023/11/28 10:09:31;;;;;;;70.78;5.82;;;;;;;-148.24;100.00;61531.34;5008115;28;20064;-54
2023/11/28 10:11:59;;;;;;;92.32;8.95;;;;;;;-148.24;100.00;61531.34;5008195;28;20038;-54
2023/11/28 10:14:25;;;;;;;100.55;12.40;;;;;;;-148.24;100.00;61531.34;5006106;28;20111;-54
2023/11/28 10:16:51;;;;;;;70.35;8.70;;;;;;;-148.24;100.00;61531.34;5006232;28;20042;-54
2023/11/28 10:19:17;;;;;;;120.50;11.73;;;;;;;-148.24;100.00;61531.34;5005704;28;20032;-54
2023/11/28 10:21:44;;;;;;;128.32;12.73;;;;;;;-148.24;100.00;61531.34;5006167;28;20048;-53
2023/11/28 10:24:09;;;;;;;94.55;11.13;;;;;;;-148.24;100.00;61531.34;5005926;28;20068;-54
2023/11/28 10:26:38;;;;;;;129.77;11.18;;;;;;;-148.24;100.00;61531.34;5006053;28;20413;-54
2023/11/28 10:29:05;;;;;;;85.15;7.70;;;;;;;-148.24;100.00;61531.34;5007807;28;20088;-54
2023/11/28 10:31:38;;;;;;;69.72;6.30;;;;;;;-148.24;100.00;61531.34;5006331;28;20489;-55
2023/11/28 10:34:09;;;;;;;75.75;5.22;;;;;;;-148.24;100.00;61531.34;5006758;28;20092;-54
2023/11/28 10:36:42;;;;;;;83.17;6.07;;;;;;;-148.24;100.00;61531.34;5008027;28;20128;-56
2023/11/28 10:39:12;;;;;;;110.95;6.63;;;;;;;-148.24;100.00;61531.34;5005516;28;20634;-54
2023/11/28 10:41:40;;;;;;;100.25;6.68;;;;;;;-148.24;100.00;61531.34;5007236;28;20529;-54
2023/11/28 10:44:06;;;;;;;113.72;8.70;;;;;;;-148.24;100.00;61531.34;5004527;28;20026;-54
2023/11/28 10:46:34;;;;;;;64.30;4.40;;;;;;;-148.24;100.00;61531.34;5007153;28;20115;-54
2023/11/28 10:49:00;;;;;;;65.35;4.75;;;;;;;-148.24;100.00;61531.34;5012483;28;20814;-54
2023/11/28 10:51:28;;;;;;;104.82;6.65;;;;;;;-148.24;100.00;61531.34;5010355;28;20514;-54